• Join FlightAware (Why Join?)
  • Login
  • US Flag 
06:24AM EDT


 

Airport Tracker/Info


-or-


 

Live Flight TrackerFlight Track Log ✈ CPZ5714 ✈ 19-Jun-2013 ✈ KMSP - KALB

Flight Track Log - Related Links

Times and Time Zones

All times are in EDT time to prevent confusion due to time zone crossing. See the CPZ5714 flight status page for this flight to view local times or setup timezone preferences in your user account.

Time Position Orientation Groundspeed Altitude Reporting Facility
EDT Latitude Longitude Course Direction KTS MPH feet Rate Location/Type
10:04PM 44.8667 -93.1167 70° East 194 223 2,700  Level Minneapolis TRACON
10:06PM 45.0024 -92.7525 69° East  Level FlightAware Approximate
10:06PM 44.9033 -93.0347 58° Northeast 258 297 5,800  Level Minneapolis Center
10:07PM 45.0463 -92.5965 68° East  Level FlightAware Approximate
10:07PM 44.9792 -92.9917 22° Northeast 292 336 8,600  Level Minneapolis Center
10:08PM 45.0899 -92.4404 70° East  Level FlightAware Approximate
10:08PM 45.0511 -92.9331 30° Northeast 310 357 10,800  Level Minneapolis Center
10:09PM 45.1257 -92.2810 70° East  Level FlightAware Approximate
10:09PM 45.1203 -92.8367 45° Northeast 348 400 13,000  Level Minneapolis Center
10:10PM 45.1648 -92.1242 70° East  Level FlightAware Approximate
10:10PM 45.1906 -92.7364 45° Northeast 359 413 15,300  Level Minneapolis Center
10:11PM 45.2547 -92.6203 52° Northeast 381 438 17,000 1,740 Climbing Minneapolis Center
10:12PM 45.2775 -92.4675 78° East 393 452 18,900 2,040 Climbing Minneapolis Center
10:13PM 45.2794 -92.2736 89° East 422 486 21,200 1,680 Climbing Minneapolis Center
10:14PM 45.2636 -92.1411 100° East 427 491 22,400 1,440 Climbing Minneapolis Center
10:15PM 45.2539 -91.9347 94° East 437 503 24,200 1,620 Climbing Minneapolis Center
10:16PM 45.2439 -91.7597 95° East 442 509 25,800 1,320 Climbing Minneapolis Center
10:17PM 45.2339 -91.5833 95° East 447 514 27,000 1,140 Climbing Minneapolis Center
10:18PM 45.2244 -91.4036 94° East 455 524 28,200 1,140 Climbing Minneapolis Center
10:19PM 45.2122 -91.2061 95° East 454 522 29,400 900 Climbing Minneapolis Center
10:20PM 45.2017 -91.0258 95° East 458 527 30,100 780 Climbing Minneapolis Center
10:21PM 45.1925 -90.8436 94° East 462 532 31,000 840 Climbing Minneapolis Center
10:22PM 45.1786 -90.6622 96° East 463 533 31,900 720 Climbing Minneapolis Center
10:23PM 45.1692 -90.5175 95° East 464 534 32,500 780 Climbing Minneapolis Center
10:24PM 45.1547 -90.2997 95° East 464 534 33,600 960 Climbing Minneapolis Center
10:25PM 45.1394 -90.0858 96° East 459 528 34,600 600 Climbing Minneapolis Center
10:26PM 45.1272 -89.9092 96° East 456 525 35,000 120 Climbing Minneapolis Center
10:27PM 45.1111 -89.6906 96° East 464 534 35,000  Level Minneapolis Center
10:28PM 45.0967 -89.5083 96° East 469 540 35,000  Level Minneapolis Center
10:30PM 45.0803 -89.2894 96° East 470 541 35,000  Level Minneapolis Center
10:31PM 45.0656 -89.1042 96° East 474 545 35,000  Level Minneapolis Center
10:32PM 45.0506 -88.9097 96° East 478 550 35,000  Level Minneapolis Center
10:33PM 45.0342 -88.7228 97° East 479 551 35,000  Level Minneapolis Center
10:34PM 45.0158 -88.5039 97° East 481 554 35,000  Level Minneapolis Center
10:35PM 45.0000 -88.3125 97° East 488 562 35,000  Level Minneapolis Center
10:36PM 44.9836 -88.1431 98° East 489 563 35,000  Level Minneapolis Center
10:37PM 44.9672 -87.9519 97° East 491 565 35,000  Level Minneapolis Center
10:38PM 44.9469 -87.7217 97° East 492 566 35,000  Level Minneapolis Center
10:39PM 44.9278 -87.5289 98° East 496 571 35,000  Level Minneapolis Center
10:40PM 44.9089 -87.3342 98° East 501 577 35,000  Level Minneapolis Center
10:41PM 44.8903 -87.1422 98° East 498 573 35,000  Level Minneapolis Center
10:42PM 44.8719 -86.9506 98° East 494 568 35,000  Level Minneapolis Center
10:43PM 44.8528 -86.7608 98° East 497 572 35,000  Level Minneapolis Center
10:44PM 44.8331 -86.5661 98° East 501 577 35,000  Level Minneapolis Center
10:45PM 44.8131 -86.3764 98° East 496 571 35,000  Level Minneapolis Center
10:46PM 44.7975 -86.2217 98° East 496 571 35,000  Level Minneapolis Center
10:47PM 44.7722 -85.9939 99° East 493 567 35,000  Level Minneapolis Center
10:48PM 44.7481 -85.7656 98° East 492 566 35,000  Level Minneapolis Center
10:49PM 44.7292 -85.5922 99° East 493 567 35,000  Level Minneapolis Center
10:50PM 44.7078 -85.4019 99° East 494 568 35,000  Level Minneapolis Center
10:51PM 44.6858 -85.2125 99° East 493 567 35,000  Level Minneapolis Center
10:52PM 44.6636 -85.0214 99° East 496 571 35,000  Level Minneapolis Center
10:53PM 44.6372 -84.7919 99° East 497 572 35,000  Level Minneapolis Center
10:54PM 44.6147 -84.6036 99° East 494 568 35,000  Level Minneapolis Center
10:56PM 44.5919 -84.4150 100° East 491 565 35,000  Level Minneapolis Center
10:57PM 44.5636 -84.1875 100° East 494 568 35,000  Level Minneapolis Center
10:58PM 44.5400 -83.9986 100° East 494 568 35,000  Level Minneapolis Center
10:59PM 44.5164 -83.8092 100° East 494 568 35,000  Level Minneapolis Center
11:00PM 44.4911 -83.6206 101° East 494 568 35,000  Level Minneapolis Center
11:01PM 44.4672 -83.4322 100° East 493 567 35,000  Level Minneapolis Center
11:02PM 44.4372 -83.2036 100° East 498 573 35,000  Level Minneapolis Center
11:03PM 44.4117 -83.0136 101° East 498 573 35,000  Level Minneapolis Center
11:04PM 44.3856 -82.8250 101° East 498 573 35,000  Level Minneapolis Center
11:05PM 44.3600 -82.6342 101° East 499 574 35,000  Level Minneapolis Center
11:06PM 44.3339 -82.4456 101° East 498 573 35,000  Level Minneapolis Center
11:07PM 44.3072 -82.2561 101° East 498 573 35,000  Level Minneapolis Center
11:08PM 44.2500 -82.0333 110° East 500 575 35,000  Level Toronto Center
11:09PM 44.2333 -81.8500 97° East 500 575 35,000  Level Toronto Center
11:10PM 44.2000 -81.6500 103° East 500 575 35,000  Level Toronto Center
11:11PM 44.1833 -81.4667 97° East 500 575 35,000  Level Toronto Center
11:12PM 44.1500 -81.2667 103° East 510 587 35,000  Level Toronto Center
11:13PM 44.1167 -81.0667 103° East 510 587 35,000  Level Toronto Center
11:14PM 44.0833 -80.8833 104° East 510 587 35,000  Level Toronto Center
11:15PM 44.0667 -80.7000 97° East 510 587 35,000  Level Toronto Center
11:16PM 44.0333 -80.5167 104° East 510 587 35,000  Level Toronto Center
11:18PM 43.9667 -80.1167 103° East 510 587 35,000  Level Toronto Center
11:19PM 43.9333 -79.9333 104° East 510 587 35,000  Level Toronto Center
11:20PM 43.9000 -79.7333 103° East 510 587 35,000  Level Toronto Center
11:21PM 43.8667 -79.5333 103° East 520 598 35,000  Level Toronto Center
11:22PM 43.8333 -79.3500 104° East 520 598 35,000  Level Toronto Center
11:23PM 43.8000 -79.1500 103° East 520 598 35,000  Level Toronto Center
11:24PM 43.7833 -78.9667 97° East 510 587 35,000  Level Toronto Center
11:25PM 43.7500 -78.7500 102° East 520 598 35,000  Level Toronto Center
11:26PM 43.7167 -78.5667 104° East 520 598 35,000  Level Toronto Center
11:27PM 43.6667 -78.3833 111° Southeast 520 598 35,000  Level Toronto Center
11:28PM 43.6333 -78.1833 103° East 520 598 35,000  Level Toronto Center
11:29PM 43.6000 -78.0000 104° East 520 598 35,000  Level Toronto Center
11:30PM 43.5731 -77.8067 101° East 514 592 35,000 -60 Level Cleveland Center
11:31PM 43.5350 -77.6136 105° East 514 592 34,900 -720 Descending Cleveland Center
11:32PM 43.5008 -77.4236 104° East 508 585 33,600 -1,320 Descending Cleveland Center
11:33PM 43.4642 -77.2311 105° East 513 590 32,300 -1,380 Descending Cleveland Center
11:34PM 43.4339 -77.0728 105° East 514 592 31,300 -1,380 Descending Boston Center
11:35PM 43.3958 -76.8783 105° East 533 613 30,000 -1,200 Descending Boston Center
11:36PM 43.3594 -76.6872 105° East 523 602 29,000 -540 Descending Boston Center
11:37PM 43.3225 -76.4989 105° East 517 595 29,000  Level Boston Center
11:38PM 43.2850 -76.3111 105° East 512 589 29,000  Level Boston Center
11:39PM 43.2583 -76.1781 105° East 517 595 29,000  Level Boston Center
11:40PM 43.2114 -75.9500 106° East 517 595 29,000 -900 Level Boston Center
11:41PM 43.1731 -75.7656 106° East 517 595 27,200 -1,920 Descending Boston Center
11:42PM 43.1344 -75.5814 106° East 511 588 25,200 -2,040 Descending Boston Center
11:43PM 43.0994 -75.4089 105° East 494 568 23,200 -2,040 Descending Boston Center
11:44PM 43.0622 -75.2394 107° East 474 545 21,200 -1,980 Descending Boston Center
11:45PM 43.0264 -75.0758 107° East 463 533 19,300 -1,800 Descending Boston Center
11:46PM 42.9944 -74.9183 105° East 446 513 17,600 -1,980 Descending Boston Center
11:47PM 42.9583 -74.7522 106° East 427 491 15,400 -2,100 Descending Boston Center
11:48PM 42.9319 -74.6181 105° East 404 465 13,500 -1,920 Descending Boston Center
11:49PM 42.8972 -74.4667 107° East 391 450 11,600 -1,500 Descending Boston Center
11:50PM 42.8642 -74.3267 108° East 333 383 10,300 -1,200 Descending Boston Center
11:51PM 42.8431 -74.2128 104° East 299 344 9,100 -1,260 Descending Boston Center
11:52PM 42.8156 -74.0958 108° East 305 351 7,700 -1,440 Descending Boston Center
11:53PM 42.7942 -73.9992 107° East 290 334 6,300 -1,380 Descending Boston Center
11:54PM 42.7492 -73.9358 134° Southeast 245 282 5,000 -1,320 Descending Boston Center
11:55PM 42.6847 -73.9231 172° South 208 239 3,700 -960 Descending Boston Center
11:56PM 42.6539 -73.8714 129° Southeast 176 203 3,100 -900 Descending Boston Center
11:57PM 42.6653 -73.8039 77° East 163 188 1,800 -1,020 Descending Boston Center
11:58PM 42.7006 -73.8075 356° North 123 142 1,000 -840 Descending Boston Center